Aérodrome :
LOGIN :

S'inscrire | Disclaimer

   EN    FR    IT 

 










Légende :    VFR   VFR Marginal   IFR   IFR Intensif   IFR Très Intensif
Visi : 
Plafond : 
>= 8 km
>= 3000ft
5 à 8 km
1000 à 3000 ft
1500m à 5 km
500 à 1000 ft
800 à 1500m
200 à 500 ft
< 800m
< 200 ft
Symboles :   Orages  Brouillard  Fortes neiges  Fortes précipitations  Vent > 20 kt
SIGMETs :   Divers  Orages  Givrage  Turbulence  Onde Orograph.  Cendres Volcan.






- Altitude de l'aérodrome : 132 ft


EGXE - RAF Leeming

DERNIER METAR :
  • 171450Z 26009KT 9999 FEW020 SCT050 BKN090 06/03 Q1008 NOSIG RMK BLU BLU

METARs EXPIRÉS :
  • 171420Z 26009KT 9999 FEW020 BKN050 06/03 Q1007 NOSIG RMK BLU BLU
  • 171350Z 26010KT 9999 FEW020 BKN050 06/02 Q1007 NOSIG RMK BLU BLU
  • 171320Z 27009KT CAVOK 06/02 Q1007 NOSIG RMK BLU BLU
  • 171250Z 30004KT 9999 FEW020 BKN065 05/02 Q1007 NOSIG RMK BLU BLU

TAF TAF EGXE
Valide du 17 à 15h jusqu'au 17 à 18h UTC


171327Z 1715/1718 27010KT 9999 BKN035



MET'MAP, la Météo Aéronautique d'un coup d'oeil ! - Copyright ORBIFLY Décembre 2007 - Disclaimer

ORBIFLY MET'MAP TEAM :

Programmation & Développement : Alexandra Zaïnal
Sur une idée originale de : Baudouin d'Aumeries
Assistance à la programmation : Marc-Olivier Méhu
Soutien technique & logistique : Manuel Goepfert

Contact : metmap@orbifly.com




SOURCES & CREDITS :

   NOAA